createdAt,value
2022-12-17T00:01:09.544Z,68.50
2022-12-17T00:04:50.476Z,73.70
2022-12-17T00:08:32.098Z,71.70
2022-12-17T00:12:13.099Z,72.50
2022-12-17T00:15:53.979Z,73.70
2022-12-17T00:19:37.224Z,72.40
2022-12-17T00:23:23.310Z,73.90
2022-12-17T00:27:04.347Z,76.20
2022-12-17T00:30:45.388Z,81.60
2022-12-17T00:34:26.122Z,76.70
2022-12-17T00:38:07.469Z,76.70
2022-12-17T00:41:48.183Z,76.50
2022-12-17T00:45:29.485Z,76.70
2022-12-17T00:49:10.300Z,77.30
2022-12-17T00:52:51.227Z,78.30
2022-12-17T00:56:32.389Z,77.30
2022-12-17T01:00:13.096Z,77.50
2022-12-17T01:03:53.869Z,77.10
2022-12-17T01:07:34.979Z,77.60
2022-12-17T01:11:25.242Z,77.80
2022-12-17T01:15:05.963Z,78.00
2022-12-17T01:18:46.903Z,78.30
2022-12-17T01:22:27.561Z,77.70
2022-12-17T01:26:17.037Z,77.50
2022-12-17T01:29:57.887Z,77.60
2022-12-17T01:33:38.920Z,78.00
2022-12-17T01:37:20.343Z,78.40
2022-12-17T01:41:01.533Z,77.90
2022-12-17T01:44:58.591Z,78.30
2022-12-17T01:48:45.848Z,77.90
2022-12-17T01:52:28.668Z,79.10
2022-12-17T01:56:10.180Z,77.90
2022-12-17T02:00:17.289Z,79.00
2022-12-17T02:03:58.156Z,78.00
2022-12-17T02:08:10.019Z,78.20
2022-12-17T02:12:10.584Z,78.40
2022-12-17T02:15:55.478Z,78.70
2022-12-17T02:19:48.760Z,78.60
2022-12-17T02:23:58.820Z,78.70
2022-12-17T02:27:42.049Z,78.50
2022-12-17T02:31:24.707Z,78.20
2022-12-17T02:35:06.927Z,78.30
2022-12-17T02:38:51.167Z,78.20
2022-12-17T02:42:36.305Z,78.00
2022-12-17T02:46:17.071Z,78.30
2022-12-17T02:49:57.895Z,77.40
2022-12-17T02:53:38.836Z,78.10
2022-12-17T02:57:19.649Z,78.40
2022-12-17T03:01:00.718Z,78.00
2022-12-17T03:04:41.614Z,77.90
2022-12-17T03:08:22.292Z,77.90
2022-12-17T03:12:03.483Z,77.10
2022-12-17T03:15:44.148Z,77.70
2022-12-17T03:19:24.790Z,78.40
2022-12-17T03:23:05.628Z,77.80
2022-12-17T03:26:46.607Z,77.10
2022-12-17T03:30:30.130Z,77.40
2022-12-17T03:34:12.877Z,76.70
2022-12-17T03:37:53.915Z,76.80
2022-12-17T03:41:35.018Z,76.60
2022-12-17T03:45:16.105Z,76.40
2022-12-17T03:48:57.235Z,76.00
2022-12-17T03:52:38.009Z,76.10
2022-12-17T03:56:18.929Z,75.40
2022-12-17T03:59:59.563Z,75.60
2022-12-17T04:03:40.786Z,75.50
2022-12-17T04:07:21.801Z,75.10
2022-12-17T04:11:02.532Z,75.00
2022-12-17T04:14:43.611Z,75.00
2022-12-17T04:18:24.288Z,74.40
2022-12-17T04:22:05.483Z,74.40
2022-12-17T04:25:45.932Z,74.30
2022-12-17T04:29:26.536Z,74.20
2022-12-17T04:33:07.447Z,74.20
2022-12-17T04:36:48.308Z,75.00
2022-12-17T04:40:30.447Z,74.10
2022-12-17T04:44:11.226Z,73.80
2022-12-17T04:47:51.838Z,73.90
2022-12-17T04:51:39.960Z,73.80
2022-12-17T04:55:21.031Z,73.70
2022-12-17T04:59:02.068Z,73.90
2022-12-17T05:02:43.170Z,73.40
2022-12-17T05:06:24.188Z,73.40
2022-12-17T05:10:05.160Z,73.20
2022-12-17T05:13:46.484Z,73.20
2022-12-17T05:17:27.370Z,73.10
2022-12-17T05:21:08.439Z,72.80
2022-12-17T05:24:49.046Z,72.70
2022-12-17T05:28:29.808Z,72.60
2022-12-17T05:32:11.107Z,72.40
2022-12-17T05:35:52.119Z,72.30
2022-12-17T05:39:33.385Z,72.20
2022-12-17T05:43:23.451Z,72.10
2022-12-17T05:47:04.443Z,72.00
2022-12-17T05:50:46.535Z,71.90
2022-12-17T05:54:27.848Z,71.80
2022-12-17T05:58:08.946Z,71.70
2022-12-17T06:01:49.739Z,71.60
2022-12-17T06:05:30.869Z,71.50
2022-12-17T06:09:11.799Z,72.20
2022-12-17T06:12:52.758Z,71.30
2022-12-17T06:16:33.654Z,71.20
2022-12-17T06:20:14.472Z,71.00
2022-12-17T06:23:55.525Z,71.00
2022-12-17T06:27:36.259Z,70.80
2022-12-17T06:31:17.302Z,70.70
2022-12-17T06:34:57.978Z,70.60
2022-12-17T06:38:38.758Z,70.60
2022-12-17T06:42:19.968Z,70.50
2022-12-17T06:46:01.096Z,70.50
2022-12-17T06:49:41.918Z,70.20
2022-12-17T06:53:25.055Z,70.20
2022-12-17T06:57:06.050Z,70.20
2022-12-17T07:00:47.085Z,70.00
2022-12-17T07:04:27.940Z,70.00
2022-12-17T07:08:14.960Z,69.80
2022-12-17T07:11:55.828Z,69.90
2022-12-17T07:15:36.910Z,69.80
2022-12-17T07:19:19.605Z,69.70
2022-12-17T07:23:03.680Z,69.70
2022-12-17T07:26:44.358Z,69.70
2022-12-17T07:30:25.588Z,69.40
2022-12-17T07:34:06.252Z,69.30
2022-12-17T07:37:47.225Z,69.00
2022-12-17T07:41:27.974Z,69.20
2022-12-17T07:45:09.061Z,68.80
2022-12-17T07:48:49.821Z,68.60
2022-12-17T07:52:30.610Z,68.90
2022-12-17T07:56:11.462Z,69.40
2022-12-17T07:59:52.481Z,67.80
2022-12-17T08:03:33.565Z,67.80
2022-12-17T08:07:14.467Z,68.60
2022-12-17T08:10:55.275Z,68.50
2022-12-17T08:14:35.980Z,68.30
2022-12-17T08:18:26.475Z,69.10
2022-12-17T08:22:07.659Z,69.10
2022-12-17T08:25:48.738Z,69.20
2022-12-17T08:29:29.644Z,69.10
2022-12-17T08:33:10.469Z,69.30
2022-12-17T08:36:51.103Z,69.70
2022-12-17T08:40:31.926Z,70.30
2022-12-17T08:44:13.047Z,69.60
2022-12-17T08:47:54.756Z,69.80
2022-12-17T08:51:38.004Z,69.60
2022-12-17T08:55:18.594Z,69.40
2022-12-17T08:59:00.571Z,69.60
2022-12-17T09:02:41.399Z,69.50
2022-12-17T09:06:22.450Z,69.90
2022-12-17T09:10:10.605Z,70.20
2022-12-17T09:13:51.480Z,70.00
2022-12-17T09:17:32.269Z,69.70
2022-12-17T09:21:14.466Z,69.70
2022-12-17T09:24:55.094Z,69.70
2022-12-17T09:28:35.815Z,69.90
2022-12-17T09:32:16.725Z,69.70
2022-12-17T09:35:58.313Z,69.80
2022-12-17T09:39:39.331Z,70.70
2022-12-17T09:43:26.754Z,70.20
2022-12-17T09:47:35.368Z,70.70
2022-12-17T09:51:16.157Z,70.20
2022-12-17T09:55:07.875Z,70.30
2022-12-17T09:58:49.595Z,70.00
2022-12-17T10:02:45.673Z,70.70
2022-12-17T10:06:31.876Z,70.50
2022-12-17T10:10:12.679Z,69.60
2022-12-17T10:13:53.366Z,69.90
2022-12-17T10:17:40.195Z,70.50
2022-12-17T10:21:24.471Z,71.00
2022-12-17T10:25:22.087Z,71.00
2022-12-17T10:29:03.121Z,70.80
2022-12-17T10:32:46.064Z,69.60
2022-12-17T10:36:43.794Z,70.60
2022-12-17T10:40:44.708Z,70.60
2022-12-17T10:44:48.201Z,71.00
2022-12-17T10:48:44.332Z,70.80
2022-12-17T10:52:47.817Z,70.40
2022-12-17T10:56:49.116Z,70.50
2022-12-17T11:00:36.825Z,70.10
2022-12-17T11:04:17.890Z,69.80
2022-12-17T11:08:02.338Z,70.40
2022-12-17T11:11:44.418Z,72.20
2022-12-17T11:15:43.283Z,71.50
2022-12-17T11:19:30.146Z,71.70
2022-12-17T11:23:15.177Z,74.30
2022-12-17T11:26:58.340Z,75.70
2022-12-17T11:30:39.690Z,76.00
2022-12-17T11:34:39.438Z,76.20
2022-12-17T11:38:36.905Z,77.10
2022-12-17T11:42:50.376Z,77.10
2022-12-17T11:46:31.451Z,76.20
2022-12-17T11:50:17.394Z,75.80
2022-12-17T11:54:07.435Z,77.10
2022-12-17T11:58:08.730Z,78.80
2022-12-17T12:02:12.758Z,79.60
2022-12-17T12:06:13.313Z,78.90
2022-12-17T12:10:20.647Z,78.50
2022-12-17T12:14:30.763Z,78.70
2022-12-17T12:18:42.315Z,77.40
2022-12-17T12:22:51.557Z,76.50
2022-12-17T12:26:39.710Z,76.40
2022-12-17T12:30:38.417Z,75.40
2022-12-17T12:34:30.331Z,74.80
2022-12-17T12:38:11.343Z,73.80
2022-12-17T12:42:13.843Z,72.70
2022-12-17T12:46:05.834Z,71.80
2022-12-17T12:50:22.637Z,70.40
2022-12-17T12:54:03.328Z,70.50
2022-12-17T12:57:49.100Z,70.20
2022-12-17T13:01:30.450Z,68.80
2022-12-17T13:05:12.885Z,71.40
2022-12-17T13:08:35.647Z,62.50
2022-12-17T13:12:04.201Z,61.00
2022-12-17T13:15:40.455Z,60.90
2022-12-17T13:19:18.717Z,61.90
2022-12-17T13:23:07.979Z,61.10
2022-12-17T13:26:39.378Z,61.50
2022-12-17T13:30:22.989Z,66.50
2022-12-17T13:34:04.584Z,68.20
2022-12-17T13:37:42.386Z,69.80
2022-12-17T13:41:31.430Z,70.70
2022-12-17T13:44:54.099Z,71.10
2022-12-17T13:48:23.211Z,71.10
2022-12-17T13:51:45.688Z,71.00
2022-12-17T13:55:10.709Z,71.20
2022-12-17T13:58:34.422Z,71.00
2022-12-17T14:01:57.052Z,70.80
2022-12-17T14:05:27.641Z,70.70
2022-12-17T14:08:52.717Z,70.70
2022-12-17T14:12:23.620Z,70.30
2022-12-17T14:15:52.780Z,70.30
2022-12-17T14:19:15.150Z,70.30
2022-12-17T14:22:49.429Z,70.30
2022-12-17T14:26:14.708Z,70.30
2022-12-17T14:29:49.296Z,71.20
2022-12-17T14:33:35.627Z,70.10
2022-12-17T14:37:01.220Z,70.30
2022-12-17T14:40:25.539Z,70.10
2022-12-17T14:43:55.460Z,70.00
2022-12-17T14:47:20.249Z,70.00
2022-12-17T14:50:42.562Z,70.00
2022-12-17T14:54:13.976Z,70.00
2022-12-17T14:57:36.295Z,69.60
2022-12-17T15:01:13.893Z,69.90
2022-12-17T15:04:38.433Z,69.60
2022-12-17T15:08:00.732Z,70.00
2022-12-17T15:11:24.243Z,70.00
2022-12-17T15:14:46.760Z,69.80
2022-12-17T15:18:09.067Z,69.90
2022-12-17T15:21:32.827Z,69.90
2022-12-17T15:24:55.184Z,70.10
2022-12-17T15:28:19.256Z,70.60
2022-12-17T15:31:41.873Z,70.10
2022-12-17T15:35:04.436Z,70.10
2022-12-17T15:38:26.676Z,70.10
2022-12-17T15:42:07.431Z,68.00
2022-12-17T15:45:31.369Z,69.90
2022-12-17T15:48:53.610Z,70.10
2022-12-17T15:52:15.971Z,70.10
2022-12-17T15:55:39.331Z,70.10
2022-12-17T15:59:01.663Z,70.40
2022-12-17T16:02:24.176Z,66.90
2022-12-17T16:05:46.596Z,67.70
2022-12-17T16:09:08.872Z,68.80
2022-12-17T16:12:31.340Z,69.10
2022-12-17T16:16:03.834Z,68.70
2022-12-17T16:19:26.891Z,69.10
2022-12-17T16:22:49.368Z,68.70
2022-12-17T16:26:11.862Z,68.70
2022-12-17T16:29:34.172Z,68.70
2022-12-17T16:32:58.942Z,68.70
2022-12-17T16:36:22.013Z,68.80
2022-12-17T16:39:44.284Z,68.70
2022-12-17T16:43:06.575Z,68.90
2022-12-17T16:46:31.793Z,69.70
2022-12-17T16:49:54.011Z,70.30
2022-12-17T16:53:17.390Z,70.70
2022-12-17T16:56:40.551Z,70.40
2022-12-17T17:00:04.495Z,69.90
2022-12-17T17:03:26.921Z,69.70
2022-12-17T17:06:51.964Z,70.30
2022-12-17T17:10:14.193Z,70.80
2022-12-17T17:13:37.394Z,70.30
2022-12-17T17:16:59.750Z,69.80
2022-12-17T17:20:22.052Z,69.10
2022-12-17T17:23:48.306Z,67.30
2022-12-17T17:27:10.630Z,68.00
2022-12-17T17:30:32.936Z,67.90
2022-12-17T17:33:55.320Z,68.10
2022-12-17T17:37:18.294Z,67.70
2022-12-17T17:40:40.500Z,69.20
2022-12-17T17:44:11.797Z,68.30
2022-12-17T17:47:34.080Z,67.90
2022-12-17T17:51:01.693Z,67.60
2022-12-17T17:54:24.017Z,68.50
2022-12-17T17:57:46.463Z,69.20
2022-12-17T18:01:11.407Z,69.40
2022-12-17T18:04:33.687Z,70.60
2022-12-17T18:07:55.963Z,76.20
2022-12-17T18:11:23.294Z,79.60
2022-12-17T18:15:12.048Z,78.70
2022-12-17T18:18:28.060Z,77.60
2022-12-17T18:21:50.431Z,74.70
2022-12-17T18:25:12.664Z,75.70
2022-12-17T18:28:35.756Z,75.80
2022-12-17T18:31:58.313Z,75.60
2022-12-17T18:35:20.907Z,75.20
2022-12-17T18:38:43.875Z,75.10
2022-12-17T18:42:26.557Z,75.00
2022-12-17T18:45:49.172Z,72.90
2022-12-17T18:49:14.661Z,74.10
2022-12-17T18:52:37.106Z,73.90
2022-12-17T18:56:05.929Z,73.80
2022-12-17T18:59:29.627Z,73.60
2022-12-17T19:02:52.208Z,72.40
2022-12-17T19:06:14.906Z,71.60
2022-12-17T19:09:39.512Z,72.90
2022-12-17T19:13:02.152Z,71.90
2022-12-17T19:16:26.184Z,72.40
2022-12-17T19:19:48.754Z,69.60
2022-12-17T19:23:11.097Z,70.10
2022-12-17T19:26:33.994Z,71.60
2022-12-17T19:29:57.198Z,72.20
2022-12-17T19:33:20.020Z,72.40
2022-12-17T19:36:43.008Z,74.50
2022-12-17T19:40:05.712Z,74.20
2022-12-17T19:43:27.961Z,74.50
2022-12-17T19:46:50.236Z,74.10
2022-12-17T19:50:13.398Z,73.80
2022-12-17T19:53:38.492Z,73.00
2022-12-17T19:57:04.076Z,71.60
2022-12-17T20:00:26.317Z,67.80
2022-12-17T20:03:49.985Z,72.30
2022-12-17T20:07:12.238Z,71.20
2022-12-17T20:10:37.716Z,71.30
2022-12-17T20:14:10.406Z,70.90
2022-12-17T20:17:32.736Z,70.70
2022-12-17T20:21:06.034Z,70.50
2022-12-17T20:24:31.479Z,70.10
2022-12-17T20:27:53.975Z,70.20
2022-12-17T20:31:16.858Z,70.20
2022-12-17T20:34:39.240Z,70.00
2022-12-17T20:38:01.574Z,70.30
2022-12-17T20:41:27.188Z,69.60
2022-12-17T20:44:53.410Z,70.10
2022-12-17T20:48:16.876Z,69.70
2022-12-17T20:51:39.236Z,69.70
2022-12-17T20:55:01.528Z,70.00
2022-12-17T20:58:23.808Z,69.80
2022-12-17T21:01:51.496Z,71.10
2022-12-17T21:05:18.042Z,70.10
2022-12-17T21:08:47.746Z,70.60
2022-12-17T21:12:13.464Z,70.60
2022-12-17T21:15:35.885Z,70.40
2022-12-17T21:19:00.546Z,70.40
2022-12-17T21:22:22.750Z,70.10
2022-12-17T21:25:45.710Z,70.30
2022-12-17T21:29:09.254Z,70.20
2022-12-17T21:32:33.845Z,69.60
2022-12-17T21:36:07.760Z,70.60
2022-12-17T21:39:30.576Z,70.60
2022-12-17T21:43:01.781Z,69.60
2022-12-17T21:46:27.266Z,70.60
2022-12-17T21:49:50.214Z,69.60
2022-12-17T21:53:13.002Z,71.10
2022-12-17T21:56:35.273Z,69.10
2022-12-17T21:59:57.591Z,69.40
2022-12-17T22:03:19.840Z,68.10
2022-12-17T22:06:44.992Z,68.00
2022-12-17T22:10:39.817Z,67.90
2022-12-17T22:14:17.029Z,67.70
2022-12-17T22:17:42.811Z,67.50
2022-12-17T22:21:05.172Z,67.20
2022-12-17T22:24:27.614Z,67.00
2022-12-17T22:27:52.500Z,67.30
2022-12-17T22:31:34.483Z,67.30
2022-12-17T22:35:22.696Z,67.10
2022-12-17T22:43:54.527Z,67.80
2022-12-17T22:44:37.201Z,67.80
2022-12-17T22:46:23.848Z,67.40
2022-12-17T22:49:46.270Z,67.60
2022-12-17T22:53:09.543Z,67.60
2022-12-17T22:57:00.533Z,67.40
2022-12-17T23:00:20.747Z,67.40
2022-12-17T23:03:44.243Z,67.10
2022-12-17T23:07:06.862Z,66.80
2022-12-17T23:10:29.427Z,66.70
2022-12-17T23:13:52.374Z,67.00
2022-12-17T23:17:14.680Z,66.80
2022-12-17T23:20:37.166Z,66.50
2022-12-17T23:23:59.867Z,66.20
2022-12-17T23:27:22.286Z,66.50
2022-12-17T23:30:44.575Z,66.80
2022-12-17T23:34:07.622Z,66.10
2022-12-17T23:37:30.522Z,66.60
2022-12-17T23:40:54.165Z,66.40
2022-12-17T23:44:16.554Z,66.20
2022-12-17T23:47:39.747Z,66.20
2022-12-17T23:51:02.642Z,66.20
2022-12-17T23:54:25.353Z,66.20
2022-12-17T23:57:47.828Z,65.90
